Time;durP1;ratioP1;P1;durP2;ratioP2;P2;SDS_P1;SDS_P2;PMS_P1;PMS_P2;Temp;Humidity;BMP_temperature;BMP_pressure;BME280_temperature;BME280_humidity;BME280_pressure;Samples;Min_cycle;Max_cycle;Signal;HPM_P1;HPM_P2
2021/06/20 00:03:41;;;;;;;;;;;24.00;83.00;;;23.07;56.17;95198.50;10407407;28;2110;-79
2021/06/20 00:08:43;;;;;;;;;;;24.00;83.00;;;22.99;56.48;95191.34;10413224;28;2118;-79
2021/06/20 00:13:46;;;;;;;;;;;23.90;83.10;;;22.96;56.56;95198.31;10418503;28;2251;-80
2021/06/20 00:18:49;;;;;;;;;;;23.80;83.10;;;23.00;56.66;95188.22;10413529;28;2090;-77
2021/06/20 00:23:52;;;;;;;;;;;23.90;83.60;;;23.03;56.37;95186.69;10412123;28;2131;-78
2021/06/20 00:28:54;;;;;;;;;;;23.80;83.30;;;23.09;56.52;95177.78;10404229;28;2096;-78
2021/06/20 00:33:57;;;;;;;;;;;23.90;83.60;;;23.03;56.81;95160.09;10433430;28;2164;-77
2021/06/20 00:39:00;;;;;;;;;;;23.90;83.90;;;23.09;56.60;95179.72;10411285;28;2070;-79
2021/06/20 00:44:02;;;;;;;;;;;24.00;83.90;;;22.94;57.14;95173.25;10419188;28;2246;-79
2021/06/20 00:49:05;;;;;;;;;;;23.90;84.00;;;22.95;57.48;95166.59;10410958;28;2091;-78
2021/06/20 00:54:08;;;;;;;;;;;23.80;84.30;;;22.97;57.74;95142.38;10401174;28;2044;-77
2021/06/20 00:59:10;;;;;;;;;;;23.90;84.90;;;23.23;57.15;95152.53;10413308;28;2133;-79
2021/06/20 01:04:13;;;;;;;;;;;24.00;84.80;;;23.04;57.68;95172.63;10404007;28;2190;-79
2021/06/20 01:09:16;;;;;;;;;;;23.90;84.80;;;23.07;57.46;95165.59;10407904;28;2123;-79
2021/06/20 01:14:19;;;;;;;;;;;23.90;85.00;;;22.95;57.34;95168.53;10399810;28;2151;-78
2021/06/20 01:19:21;;;;;;;;;;;23.90;84.70;;;22.97;57.61;95169.78;10387237;28;2200;-79
2021/06/20 01:24:24;;;;;;;;;;;23.80;85.00;;;22.71;58.52;95162.25;10399090;28;2117;-78
2021/06/20 01:29:32;;;;;;;;;;;23.80;85.10;;;22.57;59.67;95171.03;10404238;28;2304;-79
2021/06/20 01:34:35;;;;;;;;;;;23.60;86.20;;;22.43;60.15;95162.56;10390835;28;2123;-78
2021/06/20 01:39:38;;;;;;;;;;;23.40;86.70;;;22.39;60.36;95167.19;10409693;28;2230;-78
2021/06/20 01:44:40;;;;;;;;;;;23.40;87.10;;;22.30;60.52;95166.63;10405816;28;2024;-78
2021/06/20 01:49:43;;;;;;;;;;;23.30;87.60;;;22.55;60.59;95147.91;10398678;28;2166;-78
2021/06/20 01:54:52;;;;;;;;;;;23.30;88.00;;;22.33;60.25;95158.50;10410528;28;2181;-78
2021/06/20 01:59:55;;;;;;;;;;;23.30;87.60;;;22.20;60.92;95156.25;10410447;28;2130;-79
2021/06/20 02:04:58;;;;;;;;;;;23.20;88.00;;;22.13;62.18;95157.72;10387018;28;2195;-79
2021/06/20 02:10:00;;;;;;;;;;;23.10;89.00;;;22.12;62.33;95158.88;10404232;28;2151;-79
2021/06/20 02:15:03;;;;;;;;;;;23.10;89.20;;;22.00;62.30;95164.47;10411577;28;2072;-78
2021/06/20 02:20:06;;;;;;;;;;;23.00;89.20;;;21.91;62.88;95172.13;10411067;28;2249;-79
2021/06/20 02:25:08;;;;;;;;;;;22.90;89.80;;;21.71;64.34;95168.59;10406126;28;2138;-79
2021/06/20 02:30:11;;;;;;;;;;;22.80;90.70;;;21.74;64.45;95178.00;10405420;28;2126;-78
2021/06/20 02:35:14;;;;;;;;;;;22.70;91.30;;;21.61;64.28;95180.09;10403676;28;2053;-79
2021/06/20 02:40:18;;;;;;;;;;;22.70;91.20;;;21.55;64.90;95159.63;10423815;28;2143;-79
2021/06/20 02:45:21;;;;;;;;;;;22.60;91.90;;;21.63;64.89;95149.63;10438614;28;2005;-79
2021/06/20 02:50:24;;;;;;;;;;;22.60;92.00;;;21.55;65.27;95154.97;10421544;28;2159;-79
2021/06/20 02:55:27;;;;;;;;;;;22.60;92.20;;;21.47;65.29;95155.97;10415373;28;2200;-79
2021/06/20 03:00:30;;;;;;;;;;;22.50;92.60;;;21.49;65.67;95163.81;10394430;28;2067;-79
2021/06/20 03:05:33;;;;;;;;;;;22.50;92.80;;;21.43;65.99;95168.75;10412916;28;2096;-78
2021/06/20 03:10:35;;;;;;;;;;;22.50;93.40;;;21.43;66.48;95160.56;10393999;28;2109;-77
2021/06/20 03:15:40;;;;;;;;;;;22.50;93.70;;;21.55;65.59;95171.38;10427271;28;2108;-78
2021/06/20 03:20:43;;;;;;;;;;;22.50;93.40;;;21.78;64.78;95178.88;10428298;28;2176;-77
2021/06/20 03:25:46;;;;;;;;;;;22.50;93.60;;;22.19;63.45;95182.84;10410898;28;2163;-78
2021/06/20 03:30:48;;;;;;;;;;;22.80;92.80;;;21.98;64.24;95188.69;10427570;28;2099;-77
2021/06/20 03:35:51;;;;;;;;;;;22.90;92.30;;;22.12;63.56;95190.94;10425232;28;2115;-78
2021/06/20 03:40:55;;;;;;;;;;;22.80;92.40;;;22.36;62.50;95193.34;10418535;28;2199;-78
2021/06/20 03:45:57;;;;;;;;;;;23.00;91.90;;;22.39;61.40;95203.59;10414831;28;2231;-77
2021/06/20 03:51:00;;;;;;;;;;;23.20;90.70;;;22.47;61.30;95198.25;10407363;28;2242;-79
2021/06/20 03:56:03;;;;;;;;;;;23.20;90.50;;;22.34;61.32;95209.34;10406633;28;2242;-79
2021/06/20 04:01:05;;;;;;;;;;;23.30;90.10;;;21.90;63.21;95206.09;10419866;28;2127;-78
2021/06/20 04:06:08;;;;;;;;;;;23.00;91.00;;;22.02;63.12;95200.50;10408298;28;2067;-77
2021/06/20 04:11:11;;;;;;;;;;;22.80;91.80;;;22.05;63.41;95215.38;10421831;28;2105;-79
2021/06/20 04:16:33;;;;;;;;;;;22.90;92.40;;;22.16;63.42;95221.91;10422490;28;2119;-79
2021/06/20 04:21:38;;;;;;;;;;;22.90;92.40;;;22.90;60.69;95227.19;10416126;28;2028;-78
2021/06/20 04:26:42;;;;;;;;;;;23.20;91.70;;;23.09;60.27;95235.34;10426689;28;2201;-77
2021/06/20 04:31:44;;;;;;;;;;;23.60;90.70;;;23.84;58.09;95246.69;10409343;28;2095;-77
2021/06/20 04:36:47;;;;;;;;;;;24.10;89.60;;;24.23;56.59;95245.22;10418131;28;2204;-79
2021/06/20 04:41:51;;;;;;;;;;;24.60;88.00;;;23.71;58.58;95255.13;10389519;28;2047;-77
2021/06/20 04:46:54;;;;;;;;;;;24.60;87.90;;;23.77;58.95;95252.06;10423243;28;2145;-77
2021/06/20 04:51:57;;;;;;;;;;;24.50;88.50;;;23.54;59.77;95271.31;10407638;28;2339;-80
2021/06/20 04:57:02;;;;;;;;;;;24.40;89.00;;;23.59;59.54;95280.00;10417913;28;2129;-78
2021/06/20 05:02:04;;;;;;;;;;;24.30;89.30;;;23.98;58.24;95263.34;10399390;28;2042;-77
2021/06/20 05:07:07;;;;;;;;;;;24.40;89.00;;;24.38;56.97;95268.22;10397465;28;2254;-79
2021/06/20 05:12:10;;;;;;;;;;;24.60;88.50;;;24.58;56.66;95257.84;10425726;28;2214;-78
2021/06/20 05:17:13;;;;;;;;;;;25.00;88.00;;;24.99;54.88;95250.38;10419447;28;2083;-79
2021/06/20 05:22:16;;;;;;;;;;;25.20;86.40;;;25.50;53.18;95257.91;10420102;28;2243;-79
2021/06/20 05:27:18;;;;;;;;;;;25.60;85.10;;;25.74;52.45;95267.56;10400655;28;2194;-79
2021/06/20 05:32:21;;;;;;;;;;;25.90;84.00;;;25.43;53.44;95270.84;10413548;28;2078;-78
2021/06/20 05:37:24;;;;;;;;;;;26.10;83.50;;;25.36;52.71;95287.28;10411438;28;2311;-79
2021/06/20 05:42:26;;;;;;;;;;;26.00;83.20;;;25.04;53.58;95307.00;10393444;28;2127;-77
2021/06/20 05:47:29;;;;;;;;;;;25.80;83.10;;;25.24;53.08;95315.88;10415343;28;2104;-79
2021/06/20 05:52:32;;;;;;;;;;;25.80;83.10;;;26.02;51.04;95334.97;10390700;28;2095;-80
2021/06/20 05:57:35;;;;;;;;;;;26.10;82.70;;;26.35;49.75;95329.28;10418376;28;2060;-79
2021/06/20 06:02:37;;;;;;;;;;;26.60;81.00;;;26.58;48.88;95326.25;10395896;28;2091;-78
2021/06/20 06:07:40;;;;;;;;;;;26.90;80.00;;;25.99;50.01;95333.00;10423211;28;2103;-79
2021/06/20 06:12:59;;;;;;;;;;;26.70;80.00;;;25.38;52.20;95349.00;10387429;28;2301;-78
2021/06/20 06:18:02;;;;;;;;;;;26.30;81.10;;;25.10;52.62;95366.03;10380181;28;2237;-77
2021/06/20 06:23:05;;;;;;;;;;;26.00;81.70;;;24.94;53.77;95373.66;10387867;28;2162;-78
2021/06/20 06:28:08;;;;;;;;;;;25.80;82.60;;;24.61;54.28;95390.94;10411954;28;2215;-77
2021/06/20 06:33:11;;;;;;;;;;;25.50;83.00;;;24.51;54.70;95401.41;10402448;28;2115;-77
2021/06/20 06:38:13;;;;;;;;;;;25.30;83.70;;;24.48;54.72;95401.34;10405933;28;2227;-78
2021/06/20 06:43:16;;;;;;;;;;;25.30;83.90;;;24.32;54.97;95392.50;10402969;28;2156;-79
2021/06/20 06:48:18;;;;;;;;;;;25.10;84.20;;;24.20;55.28;95399.78;10411786;28;2083;-80
2021/06/20 06:53:21;;;;;;;;;;;25.00;84.60;;;24.11;55.67;95409.44;10389243;28;2018;-78
2021/06/20 06:58:24;;;;;;;;;;;24.90;85.20;;;24.07;55.71;95409.38;10406416;28;2087;-78
2021/06/20 07:03:27;;;;;;;;;;;24.80;85.40;;;24.15;56.03;95433.03;10401406;28;2263;-79
2021/06/20 07:08:30;;;;;;;;;;;24.80;85.70;;;24.06;56.03;95440.75;10402310;28;2041;-81
2021/06/20 07:13:32;;;;;;;;;;;24.80;85.70;;;23.85;56.93;95446.66;10409815;28;2131;-78
2021/06/20 07:18:36;;;;;;;;;;;24.60;86.10;;;24.03;56.40;95452.47;10402756;28;2217;-77
2021/06/20 07:23:38;;;;;;;;;;;24.80;86.10;;;24.26;55.68;95445.00;10412004;28;2138;-78
2021/06/20 07:28:41;;;;;;;;;;;24.80;86.00;;;24.21;56.31;95450.78;10413184;28;2150;-76
2021/06/20 07:33:45;;;;;;;;;;;24.90;86.10;;;24.17;56.99;95455.41;10416335;28;2078;-78
2021/06/20 07:38:48;;;;;;;;;;;25.00;86.40;;;24.51;55.33;95439.09;10420202;28;2079;-80
2021/06/20 07:43:51;;;;;;;;;;;25.10;85.40;;;24.94;53.67;95421.22;10419979;28;2142;-78
2021/06/20 07:48:54;;;;;;;;;;;25.30;84.70;;;25.39;53.33;95429.59;10401652;28;2310;-80
2021/06/20 07:53:56;;;;;;;;;;;25.60;84.10;;;25.59;52.11;95444.75;10427764;28;2103;-80
2021/06/20 07:58:59;;;;;;;;;;;26.00;83.40;;;25.88;51.64;95449.34;10428334;28;2226;-80
2021/06/20 08:04:02;;;;;;;;;;;26.20;83.30;;;26.01;51.29;95465.59;10410246;28;2096;-79
2021/06/20 08:09:05;;;;;;;;;;;26.30;82.40;;;25.92;52.25;95467.88;10423089;28;1779;-81
2021/06/20 08:14:07;;;;;;;;;;;26.40;82.50;;;26.03;51.50;95471.53;10440127;28;2063;-79
2021/06/20 08:19:10;;;;;;;;;;;26.60;82.20;;;26.57;49.93;95464.47;10404166;28;2128;-79
2021/06/20 08:24:13;;;;;;;;;;;26.80;81.00;;;26.42;49.94;95447.06;10422213;28;2127;-78
2021/06/20 08:29:16;;;;;;;;;;;27.20;80.40;;;26.99;48.04;95443.84;10400129;28;2197;-77
2021/06/20 08:34:18;;;;;;;;;;;27.40;79.20;;;27.51;45.97;95441.69;10409826;28;2292;-78
2021/06/20 08:39:22;;;;;;;;;;;27.80;77.30;;;26.89;47.99;95443.38;10416345;28;2091;-78
2021/06/20 08:44:29;;;;;;;;;;;27.60;77.80;;;27.83;45.70;95459.13;10406052;28;2060;-79
2021/06/20 08:49:36;;;;;;;;;;;28.10;77.50;;;27.99;43.49;95470.59;10404270;28;2133;-80
2021/06/20 08:55:00;;;;;;;;;;;28.20;74.70;;;26.99;45.38;95472.22;10396513;28;2300;-78
2021/06/20 09:00:02;;;;;;;;;;;28.00;74.40;;;27.28;45.13;95467.63;10416367;28;2099;-79
2021/06/20 09:05:05;;;;;;;;;;;27.90;74.60;;;26.88;44.93;95461.13;10410689;28;2091;-78
2021/06/20 09:10:08;;;;;;;;;;;28.10;73.40;;;25.74;48.24;95452.00;10396824;28;1791;-78
2021/06/20 09:15:12;;;;;;;;;;;27.40;74.60;;;28.19;42.50;95448.88;10415598;28;1910;-79
2021/06/20 09:20:15;;;;;;;;;;;28.00;75.00;;;27.31;44.21;95430.97;10407125;28;2031;-79
2021/06/20 09:25:19;;;;;;;;;;;28.40;72.80;;;25.84;48.47;95423.78;10400208;28;2062;-79
2021/06/20 09:30:23;;;;;;;;;;;27.20;75.70;;;27.40;44.77;95412.06;10422018;28;1822;-79
2021/06/20 09:35:26;;;;;;;;;;;27.30;76.30;;;28.88;41.76;95400.56;10415820;28;2047;-80
2021/06/20 09:40:29;;;;;;;;;;;28.30;74.80;;;29.02;40.91;95406.09;10393718;28;2063;-81
2021/06/20 09:45:32;;;;;;;;;;;29.20;72.10;;;27.82;42.44;95412.56;10409880;28;2079;-80
2021/06/20 09:50:35;;;;;;;;;;;28.90;70.60;;;27.87;43.00;95404.69;10397072;28;2092;-80
2021/06/20 09:55:37;;;;;;;;;;;28.60;72.10;;;28.57;39.90;95395.91;10421941;28;2191;-78
2021/06/20 10:00:41;;;;;;;;;;;28.90;70.20;;;28.28;41.83;95387.66;10407639;28;2187;-81
2021/06/20 10:05:44;;;;;;;;;;;29.10;71.00;;;28.52;41.50;95381.34;10397653;28;2042;-80
2021/06/20 10:10:47;;;;;;;;;;;29.20;71.00;;;28.42;41.59;95379.38;10413548;28;2039;-80
2021/06/20 10:15:49;;;;;;;;;;;29.30;70.20;;;29.52;38.88;95349.66;10413722;28;2001;-81
2021/06/20 10:20:52;;;;;;;;;;;29.90;69.00;;;29.30;38.80;95358.09;10393175;28;1898;-82
2021/06/20 10:25:55;;;;;;;;;;;30.00;68.30;;;29.28;38.41;95351.41;10408294;28;2074;-79
2021/06/20 10:30:57;;;;;;;;;;;30.00;68.10;;;29.55;38.50;95351.63;10391593;28;2086;-80
2021/06/20 10:36:01;;;;;;;;;;;30.10;68.00;;;28.08;41.47;95354.16;10417344;28;2060;-82
2021/06/20 10:41:04;;;;;;;;;;;29.30;68.60;;;28.64;40.45;95354.44;10408196;28;2102;-82
2021/06/20 10:46:06;;;;;;;;;;;29.30;69.50;;;29.56;38.50;95351.22;10406049;28;2263;-80
2021/06/20 10:51:09;;;;;;;;;;;29.60;69.10;;;30.75;37.15;95337.09;10435705;28;1822;-79
2021/06/20 10:56:12;;;;;;;;;;;31.20;67.20;;;28.69;40.57;95338.22;10430444;28;2203;-80
2021/06/20 11:01:15;;;;;;;;;;;30.60;66.20;;;30.90;36.80;95319.06;10420610;28;2145;-81
2021/06/20 11:06:20;;;;;;;;;;;30.90;66.90;;;30.65;36.36;95308.22;10420989;28;2094;-81
2021/06/20 11:11:27;;;;;;;;;;;31.70;64.60;;;29.70;38.61;95303.25;10427924;28;2207;-81
2021/06/20 11:16:30;;;;;;;;;;;31.10;66.00;;;29.82;39.63;95299.19;10434102;28;2129;-79
2021/06/20 11:21:34;;;;;;;;;;;31.00;67.40;;;29.34;39.43;95288.88;10418721;28;1922;-79
2021/06/20 11:26:38;;;;;;;;;;;30.40;67.40;;;30.49;37.98;95283.88;10402135;28;2166;-79
2021/06/20 11:31:40;;;;;;;;;;;31.00;66.90;;;30.41;37.96;95277.63;10421133;28;2172;-80
2021/06/20 11:36:43;;;;;;;;;;;31.30;66.00;;;30.54;38.18;95268.75;10424862;28;2115;-79
2021/06/20 11:41:50;;;;;;;;;;;31.20;66.50;;;31.04;35.42;95257.78;10398765;28;2106;-78
2021/06/20 11:46:54;;;;;;;;;;;31.80;63.60;;;31.52;34.28;95242.81;10402857;28;1997;-81
2021/06/20 11:51:56;;;;;;;;;;;31.90;63.10;;;31.39;34.99;95239.06;10412134;28;1765;-80
2021/06/20 11:56:59;;;;;;;;;;;32.00;63.30;;;29.93;39.38;95216.75;10411975;28;2290;-78
2021/06/20 12:02:06;;;;;;;;;;;31.40;65.50;;;29.05;42.38;95200.50;10399395;28;1889;-79
2021/06/20 12:07:12;;;;;;;;;;;30.60;68.40;;;30.12;39.46;95196.00;10398500;28;2042;-82
2021/06/20 12:12:17;;;;;;;;;;;30.50;68.20;;;29.81;39.04;95192.34;10413598;28;2138;-79
2021/06/20 12:17:20;;;;;;;;;;;30.60;67.20;;;29.41;40.30;95188.38;10423374;28;2172;-79
2021/06/20 12:22:23;;;;;;;;;;;30.20;68.30;;;29.19;41.37;95194.06;10424650;28;2122;-82
2021/06/20 12:27:25;;;;;;;;;;;30.10;68.90;;;28.52;44.05;95195.31;10424040;28;2076;-78
2021/06/20 12:32:28;;;;;;;;;;;29.70;70.50;;;28.88;43.70;95201.38;10430907;28;2204;-80
2021/06/20 12:37:31;;;;;;;;;;;29.70;71.20;;;29.25;42.18;95197.19;10421470;28;2215;-82
2021/06/20 12:42:34;;;;;;;;;;;29.90;70.60;;;28.96;42.54;95208.50;10428226;28;2137;-78
2021/06/20 12:47:36;;;;;;;;;;;30.00;70.30;;;28.75;42.85;95203.06;10418165;28;2035;-79
2021/06/20 12:52:39;;;;;;;;;;;29.80;70.10;;;29.14;43.73;95196.50;10430418;28;2235;-78
2021/06/20 12:57:42;;;;;;;;;;;30.00;71.80;;;29.25;42.50;95191.66;10429337;28;2112;-79
2021/06/20 13:02:45;;;;;;;;;;;30.10;70.50;;;29.92;38.91;95179.16;10409931;28;2048;-80
2021/06/20 13:07:48;;;;;;;;;;;30.60;67.70;;;29.49;40.24;95165.72;10425669;28;2143;-79
2021/06/20 13:12:50;;;;;;;;;;;30.50;68.00;;;29.37;40.72;95165.47;10423542;28;2089;-79
2021/06/20 13:17:53;;;;;;;;;;;30.30;68.20;;;28.96;41.72;95152.38;10427420;28;2242;-79
2021/06/20 13:22:57;;;;;;;;;;;30.00;69.10;;;28.99;41.91;95148.78;10395005;28;2113;-80
2021/06/20 13:28:00;;;;;;;;;;;29.90;69.00;;;28.97;41.86;95129.84;10397181;28;2126;-78
2021/06/20 13:33:03;;;;;;;;;;;29.90;69.40;;;29.06;41.88;95119.06;10392879;28;2089;-80
2021/06/20 13:38:06;;;;;;;;;;;29.70;70.10;;;29.39;40.67;95096.63;10408291;28;2000;-81
2021/06/20 13:43:08;;;;;;;;;;;30.00;69.00;;;29.30;40.90;95088.81;10418155;28;2061;-81
2021/06/20 13:48:11;;;;;;;;;;;30.00;69.20;;;28.16;42.32;95084.13;10389218;28;2146;-81
2021/06/20 13:53:14;;;;;;;;;;;29.60;68.20;;;28.46;42.29;95073.31;10415776;28;2246;-81
2021/06/20 13:58:18;;;;;;;;;;;29.30;69.60;;;29.21;41.16;95074.69;10423371;28;2140;-82
2021/06/20 14:03:21;;;;;;;;;;;29.60;69.80;;;29.08;41.10;95050.28;10417594;28;2065;-80
2021/06/20 14:08:23;;;;;;;;;;;29.90;68.60;;;29.23;41.28;95031.53;10419017;28;2098;-81
2021/06/20 14:13:26;;;;;;;;;;;29.90;69.10;;;29.64;40.01;95036.22;10421378;28;2178;-80
2021/06/20 14:18:29;;;;;;;;;;;30.10;68.60;;;29.85;39.63;95029.66;10405058;28;2161;-80
2021/06/20 14:23:32;;;;;;;;;;;30.50;68.00;;;29.78;39.39;95008.38;10424640;28;2064;-82
2021/06/20 14:28:35;;;;;;;;;;;30.50;67.40;;;28.80;41.42;95004.28;10432707;28;2089;-79
2021/06/20 14:33:38;;;;;;;;;;;30.00;68.30;;;29.13;40.91;95010.28;10431518;28;2259;-81
2021/06/20 14:38:41;;;;;;;;;;;29.80;68.40;;;29.10;41.56;95013.13;10411890;28;2210;-81
2021/06/20 14:43:44;;;;;;;;;;;29.90;68.70;;;29.19;41.01;95000.34;10428439;28;2174;-81
2021/06/20 14:48:47;;;;;;;;;;;30.10;68.80;;;29.74;39.85;94995.75;10439060;28;2135;-81
2021/06/20 14:53:49;;;;;;;;;;;30.40;68.20;;;29.71;40.39;94991.84;10431201;28;2215;-80
2021/06/20 14:58:52;;;;;;;;;;;30.70;67.40;;;29.33;40.98;94968.97;10427953;28;2048;-81
2021/06/20 15:03:55;;;;;;;;;;;30.30;68.10;;;30.15;39.00;94971.44;10425040;28;2340;-81
2021/06/20 15:08:57;;;;;;;;;;;30.70;67.40;;;30.39;39.04;94977.78;10427648;28;2283;-82
2021/06/20 15:14:00;;;;;;;;;;;30.90;67.20;;;29.64;40.60;94968.97;10434905;28;2075;-83
2021/06/20 15:19:03;;;;;;;;;;;30.80;67.30;;;29.64;40.60;94957.91;10428878;28;1903;-80
2021/06/20 15:24:06;;;;;;;;;;;30.70;67.40;;;29.61;41.27;94943.69;10438124;28;2039;-79
2021/06/20 15:29:09;;;;;;;;;;;30.60;68.20;;;29.40;41.39;94954.25;10434917;28;2035;-82
2021/06/20 15:34:32;;;;;;;;;;;30.50;68.60;;;29.56;41.63;94940.63;10415700;28;2060;-82
2021/06/20 15:39:35;;;;;;;;;;;30.30;69.50;;;29.56;41.90;94948.91;10424608;28;2088;-79
2021/06/20 15:44:37;;;;;;;;;;;30.30;69.70;;;30.08;40.75;94954.88;10429063;28;2058;-80
2021/06/20 15:49:40;;;;;;;;;;;30.50;69.70;;;29.40;42.53;94951.50;10430040;28;2302;-80
2021/06/20 15:54:43;;;;;;;;;;;30.60;69.50;;;29.48;43.31;94945.44;10414284;28;2226;-77
2021/06/20 15:59:51;;;;;;;;;;;30.30;71.50;;;29.05;44.02;94923.81;10409972;28;2151;-78
2021/06/20 16:04:54;;;;;;;;;;;30.30;71.50;;;28.78;44.70;94922.94;10395899;28;2203;-79
2021/06/20 16:09:57;;;;;;;;;;;29.70;72.30;;;28.76;45.16;94925.31;10412293;28;2161;-77
2021/06/20 16:15:00;;;;;;;;;;;29.60;72.90;;;28.51;45.68;94907.00;10405631;28;2004;-77
2021/06/20 16:20:02;;;;;;;;;;;29.30;73.40;;;28.54;45.75;94908.94;10423458;28;2143;-79
2021/06/20 16:25:06;;;;;;;;;;;29.30;73.70;;;28.54;45.26;94900.66;10399830;28;1783;-77
2021/06/20 16:36:13;;;;;;;;;;;29.10;73.70;;;28.13;45.91;94878.53;10344500;28;2151;-77
2021/06/20 16:41:18;;;;;;;;;;;28.90;73.20;;;28.08;45.73;94881.72;10366571;28;1970;-79
2021/06/20 16:46:25;;;;;;;;;;;29.00;74.00;;;28.13;45.50;94874.97;10380299;28;1778;-79
2021/06/20 16:51:38;;;;;;;;;;;28.90;73.00;;;27.86;45.75;94855.47;10362747;28;1486;-78
2021/06/20 17:15:03;;;;;;;;;;;28.30;74.60;;;27.26;47.33;94802.25;10030247;29;1917;-78
2021/06/20 17:20:30;;;;;;;;;;;28.10;75.00;;;26.93;48.58;94774.06;10111403;29;1915;-76
2021/06/20 17:25:33;;;;;;;;;;;27.90;75.60;;;26.84;48.75;94750.88;10178586;29;1632;-78
2021/06/20 17:30:35;;;;;;;;;;;27.70;76.10;;;26.64;49.71;94729.31;10196464;29;1461;-78
2021/06/20 17:35:40;;;;;;;;;;;27.60;76.90;;;26.53;50.41;94736.06;10202462;29;1738;-77
2021/06/20 17:40:44;;;;;;;;;;;27.40;77.90;;;26.40;51.26;94757.78;10191878;29;1883;-79
2021/06/20 17:45:48;;;;;;;;;;;27.30;78.80;;;26.37;51.56;94764.84;10363098;28;1127;-77
2021/06/20 17:50:51;;;;;;;;;;;27.20;79.10;;;26.32;52.03;94776.28;10374776;28;1628;-79
2021/06/20 17:55:55;;;;;;;;;;;27.20;79.70;;;26.36;51.87;94760.53;10369075;28;1478;-78
2021/06/20 18:01:01;;;;;;;;;;;27.20;79.80;;;26.20;52.55;94738.13;10374369;28;1922;-77
2021/06/20 18:07:00;;;;;;;;;;;27.20;80.30;;;26.17;52.94;94738.94;10333759;28;1540;-78
2021/06/20 18:12:09;;;;;;;;;;;27.00;80.70;;;26.13;52.98;94738.94;10369257;28;1505;-78
2021/06/20 18:35:00;;;;;;;;;;;26.70;82.50;;;25.64;55.60;94698.56;10451209;28;1684;-78
2021/06/20 18:40:07;;;;;;;;;;;26.60;83.10;;;25.55;56.19;94692.66;10426166;28;1906;-76
2021/06/20 18:45:13;;;;;;;;;;;26.50;83.60;;;25.51;56.39;94703.69;10422188;28;1505;-78
2021/06/20 18:50:16;;;;;;;;;;;26.40;83.80;;;25.50;56.68;94701.31;10411692;28;1609;-78
2021/06/20 18:55:20;;;;;;;;;;;26.40;84.40;;;25.48;56.48;94709.19;10411654;28;1401;-76
2021/06/20 19:00:23;;;;;;;;;;;26.40;84.20;;;25.42;56.66;94710.78;10408194;28;1938;-79
2021/06/20 19:05:26;;;;;;;;;;;26.40;84.30;;;25.34;56.88;94705.28;10428005;28;1494;-78
2021/06/20 19:10:30;;;;;;;;;;;26.30;84.60;;;25.19;57.33;94709.19;10433938;28;1649;-78
2021/06/20 19:15:33;;;;;;;;;;;26.20;85.10;;;24.95;58.45;94694.25;10422109;28;2047;-79
2021/06/20 19:20:37;;;;;;;;;;;26.00;86.30;;;24.98;58.46;94695.41;10452545;28;1985;-79
2021/06/20 19:25:39;;;;;;;;;;;25.90;86.20;;;25.01;58.61;94713.91;10446379;28;1594;-80
2021/06/20 19:30:42;;;;;;;;;;;26.00;86.90;;;24.93;58.94;94715.03;10426375;28;2384;-77
2021/06/20 19:35:45;;;;;;;;;;;25.90;86.60;;;24.74;59.56;94727.19;10430875;28;1646;-79
2021/06/20 19:40:48;;;;;;;;;;;25.80;87.10;;;24.78;59.42;94739.78;10447289;28;1981;-77
2021/06/20 19:45:51;;;;;;;;;;;25.80;87.20;;;24.83;59.50;94751.56;10456127;28;1577;-79
2021/06/20 19:50:55;;;;;;;;;;;25.80;87.40;;;24.80;59.26;94747.63;10441814;28;1573;-78
2021/06/20 19:55:58;;;;;;;;;;;25.80;87.20;;;24.60;59.40;94735.41;10466864;28;1307;-79
2021/06/20 20:01:04;;;;;;;;;;;26.00;87.80;;;24.44;59.71;94724.78;10439789;28;1910;-78
2021/06/20 20:06:08;;;;;;;;;;;25.40;87.80;;;24.30;59.66;94714.47;10423636;28;1732;-79
2021/06/20 20:11:13;;;;;;;;;;;25.30;87.90;;;24.21;60.47;94725.84;10425429;28;1363;-79
2021/06/20 20:16:26;;;;;;;;;;;25.20;88.50;;;24.17;60.51;94725.03;10420436;28;1626;-77
2021/06/20 20:22:00;;;;;;;;;;;25.20;88.70;;;24.09;60.78;94730.88;10465992;28;1985;-80
2021/06/20 20:27:02;;;;;;;;;;;25.10;88.80;;;23.97;60.95;94734.72;10468714;28;2057;-79
2021/06/20 20:32:05;;;;;;;;;;;25.00;89.00;;;23.93;61.11;94744.94;10456015;28;2096;-80
2021/06/20 20:37:08;;;;;;;;;;;24.90;89.40;;;23.89;61.26;94749.59;10445751;28;2050;-80
2021/06/20 20:42:11;;;;;;;;;;;24.80;89.80;;;23.63;62.36;94748.66;10447869;28;2022;-77
2021/06/20 20:47:14;;;;;;;;;;;24.70;90.40;;;23.57;62.61;94765.81;10429440;28;2108;-78
2021/06/20 20:52:16;;;;;;;;;;;24.60;90.90;;;23.53;62.65;94782.25;10431541;28;1944;-78
2021/06/20 20:57:20;;;;;;;;;;;24.50;91.10;;;23.46;62.72;94795.91;10446418;28;2325;-78
2021/06/20 21:02:23;;;;;;;;;;;24.40;91.40;;;23.35;63.22;94789.53;10449207;28;2008;-78
2021/06/20 21:07:26;;;;;;;;;;;24.30;91.50;;;23.26;63.52;94795.34;10426724;28;2096;-78
2021/06/20 21:12:28;;;;;;;;;;;24.20;91.90;;;23.24;63.35;94789.47;10450031;28;1970;-79
2021/06/20 21:17:31;;;;;;;;;;;24.20;91.90;;;23.22;63.87;94800.00;10458156;28;2232;-79
2021/06/20 21:22:34;;;;;;;;;;;24.10;92.30;;;23.02;64.55;94802.16;10448320;28;1964;-80
2021/06/20 21:27:38;;;;;;;;;;;24.10;92.90;;;22.82;65.74;94806.25;10447999;28;1826;-78
2021/06/20 21:32:41;;;;;;;;;;;23.90;93.80;;;22.68;66.29;94815.09;10453168;28;2030;-77
2021/06/20 21:37:44;;;;;;;;;;;23.80;94.40;;;22.79;66.81;94802.31;10451752;28;2061;-77
2021/06/20 21:42:46;;;;;;;;;;;23.80;94.70;;;22.81;67.14;94799.19;10464304;28;1914;-77
2021/06/20 21:47:49;;;;;;;;;;;23.70;95.50;;;22.87;67.22;94830.59;10448182;28;2029;-78
2021/06/20 21:52:52;;;;;;;;;;;23.80;95.90;;;22.80;67.68;94866.13;10438997;28;1845;-79
2021/06/20 21:57:55;;;;;;;;;;;24.50;96.70;;;22.62;68.34;94869.41;10421720;28;2046;-78
2021/06/20 22:02:59;;;;;;;;;;;23.60;96.90;;;22.38;68.45;94864.41;10445033;28;1984;-77
2021/06/20 22:08:02;;;;;;;;;;;23.40;96.80;;;22.10;69.64;94851.91;10435579;28;2031;-79
2021/06/20 22:13:07;;;;;;;;;;;23.20;97.60;;;22.22;69.53;94847.38;10444461;28;2026;-79
2021/06/20 22:18:11;;;;;;;;;;;23.00;98.60;;;22.03;70.16;94843.56;10441815;28;2320;-77
2021/06/20 22:23:13;;;;;;;;;;;23.00;98.80;;;22.16;70.31;94849.66;10449129;28;2078;-77
2021/06/20 22:28:16;;;;;;;;;;;23.00;99.20;;;22.21;70.20;94868.50;10464326;28;2029;-79
2021/06/20 22:33:24;;;;;;;;;;;23.10;99.10;;;22.04;70.63;94869.78;10449081;28;2025;-80
2021/06/20 22:38:27;;;;;;;;;;;23.00;99.10;;;22.02;71.01;94887.75;10465689;28;2068;-79
2021/06/20 22:43:29;;;;;;;;;;;23.00;99.50;;;21.92;71.63;94910.25;10463929;28;2118;-78
2021/06/20 22:48:32;;;;;;;;;;;22.90;99.90;;;21.90;72.04;94926.25;10466781;28;2182;-78
2021/06/20 22:53:35;;;;;;;;;;;22.80;99.90;;;21.86;72.28;94918.75;10466125;28;2268;-78
2021/06/20 22:58:38;;;;;;;;;;;22.80;99.90;;;21.74;72.67;94916.22;10456458;28;2204;-77
2021/06/20 23:03:40;;;;;;;;;;;22.70;99.90;;;21.87;72.00;94922.28;10436066;28;2101;-76
2021/06/20 23:08:43;;;;;;;;;;;22.70;99.90;;;21.88;71.47;94915.63;10443753;28;2117;-78
2021/06/20 23:13:46;;;;;;;;;;;22.70;99.90;;;21.57;73.21;94905.78;10457728;28;2056;-77
2021/06/20 23:18:49;;;;;;;;;;;22.60;99.90;;;21.03;77.01;94909.44;10447523;28;2108;-78
2021/06/20 23:23:52;;;;;;;;;;;22.20;99.90;;;20.82;78.96;94903.56;10460427;28;2066;-77
2021/06/20 23:28:54;;;;;;;;;;;21.90;99.90;;;20.96;78.67;94888.22;10455401;28;2242;-77
2021/06/20 23:33:57;;;;;;;;;;;21.90;99.90;;;20.61;80.62;94884.78;10452922;28;2042;-77
2021/06/20 23:39:00;;;;;;;;;;;21.70;99.90;;;20.46;81.30;94879.03;10467853;28;2129;-76
2021/06/20 23:44:03;;;;;;;;;;;21.50;99.90;;;20.05;83.19;94861.38;10441723;28;2108;-75
2021/06/20 23:49:05;;;;;;;;;;;21.30;99.90;;;20.11;82.67;94875.53;10457173;28;2124;-78
2021/06/20 23:54:08;;;;;;;;;;;21.20;99.90;;;20.05;82.38;94893.31;10448617;28;2211;-77
2021/06/20 23:59:11;;;;;;;;;;;21.10;99.90;;;20.08;81.77;94906.22;10450469;28;2105;-77
